createdAt,value
2023-03-10T00:01:20.609Z,51.80
2023-03-10T00:03:56.489Z,47.27
2023-03-10T00:06:36.262Z,48.07
2023-03-10T00:09:14.248Z,48.23
2023-03-10T00:11:52.550Z,48.90
2023-03-10T00:14:28.484Z,48.37
2023-03-10T00:17:04.165Z,48.00
2023-03-10T00:19:40.406Z,48.27
2023-03-10T00:22:16.749Z,48.80
2023-03-10T00:24:56.358Z,49.27
2023-03-10T00:27:35.275Z,50.00
2023-03-10T00:30:12.630Z,49.97
2023-03-10T00:32:49.193Z,48.33
2023-03-10T00:35:25.624Z,50.17
2023-03-10T00:38:05.544Z,49.70
2023-03-10T00:40:42.827Z,49.03
2023-03-10T00:43:25.559Z,49.97
2023-03-10T00:46:02.563Z,49.00
2023-03-10T00:48:38.853Z,50.43
2023-03-10T00:51:15.828Z,50.83
2023-03-10T00:54:00.102Z,49.47
2023-03-10T00:56:35.942Z,50.03
2023-03-10T00:59:16.933Z,49.67
2023-03-10T01:01:58.381Z,49.67
2023-03-10T01:04:34.321Z,48.37
2023-03-10T01:07:10.767Z,48.30
2023-03-10T01:09:47.106Z,47.83
2023-03-10T01:12:24.959Z,49.87
2023-03-10T01:15:03.671Z,47.73
2023-03-10T01:17:40.077Z,48.20
2023-03-10T01:20:18.540Z,48.77
2023-03-10T01:22:56.291Z,49.80
2023-03-10T01:25:38.373Z,48.47
2023-03-10T01:28:15.620Z,48.17
2023-03-10T01:30:55.013Z,48.67
2023-03-10T01:33:34.950Z,48.53
2023-03-10T01:36:15.393Z,49.07
2023-03-10T01:38:55.426Z,46.83
2023-03-10T01:41:33.394Z,47.60
2023-03-10T01:44:09.389Z,48.50
2023-03-10T01:46:53.424Z,47.70
2023-03-10T01:49:49.766Z,47.60
2023-03-10T01:52:28.437Z,47.67
2023-03-10T01:55:11.615Z,46.77
2023-03-10T01:57:50.039Z,43.10
2023-03-10T02:00:27.912Z,44.97
2023-03-10T02:03:17.404Z,46.07
2023-03-10T02:06:01.739Z,45.50
2023-03-10T02:08:50.857Z,45.90
2023-03-10T02:11:30.854Z,47.23
2023-03-10T02:14:15.441Z,44.37
2023-03-10T02:16:58.637Z,47.23
2023-03-10T02:19:47.532Z,47.23
2023-03-10T02:22:23.968Z,43.40
2023-03-10T02:25:05.340Z,48.67
2023-03-10T02:27:49.281Z,47.40
2023-03-10T02:30:29.417Z,48.83
2023-03-10T02:33:09.127Z,48.40
2023-03-10T02:35:45.508Z,46.13
2023-03-10T02:38:26.485Z,43.07
2023-03-10T02:41:03.375Z,44.60
2023-03-10T02:43:52.005Z,42.57
2023-03-10T02:46:33.836Z,42.30
2023-03-10T02:49:12.774Z,44.90
2023-03-10T02:51:57.110Z,42.30
2023-03-10T02:54:33.580Z,42.50
2023-03-10T02:57:13.638Z,39.70
2023-03-10T02:59:52.325Z,41.10
2023-03-10T03:02:34.609Z,40.53
2023-03-10T03:05:12.384Z,39.70
2023-03-10T03:07:53.676Z,28.97
2023-03-10T03:10:34.129Z,23.17
2023-03-10T03:13:11.413Z,27.13
2023-03-10T03:15:52.980Z,24.17
2023-03-10T03:18:32.350Z,21.10
2023-03-10T03:21:12.251Z,25.47
2023-03-10T03:23:50.857Z,26.00
2023-03-10T03:26:31.236Z,25.17
2023-03-10T03:29:15.244Z,24.87
2023-03-10T03:31:55.480Z,26.10
2023-03-10T03:34:38.549Z,25.50
2023-03-10T03:37:17.497Z,25.60
2023-03-10T03:39:53.761Z,25.03
2023-03-10T03:42:32.012Z,24.90
2023-03-10T03:45:09.122Z,26.50
2023-03-10T03:47:49.964Z,26.17
2023-03-10T03:50:27.080Z,26.77
2023-03-10T03:53:07.249Z,27.93
2023-03-10T03:55:47.195Z,27.90
2023-03-10T03:58:24.578Z,27.20
2023-03-10T04:01:08.559Z,29.60
2023-03-10T04:03:53.280Z,28.87
2023-03-10T04:06:32.917Z,30.73
2023-03-10T04:09:11.845Z,32.83
2023-03-10T04:11:49.506Z,33.70
2023-03-10T04:14:26.700Z,35.60
2023-03-10T04:17:04.947Z,36.10
2023-03-10T04:19:57.211Z,36.73
2023-03-10T04:23:02.654Z,36.90
2023-03-10T04:26:16.192Z,36.50
2023-03-10T04:30:09.056Z,34.80
2023-03-10T04:33:20.102Z,36.17
2023-03-10T04:36:14.240Z,35.87
2023-03-10T04:38:55.253Z,38.00
2023-03-10T04:41:40.150Z,37.43
2023-03-10T04:44:30.479Z,36.90
2023-03-10T04:47:18.936Z,32.37
2023-03-10T04:49:58.722Z,29.33
2023-03-10T04:52:43.097Z,28.73
2023-03-10T04:55:20.597Z,26.30
2023-03-10T04:58:02.770Z,19.83
2023-03-10T05:00:53.094Z,21.73
2023-03-10T05:03:43.509Z,20.63
2023-03-10T05:06:24.081Z,23.97
2023-03-10T05:09:23.444Z,22.03
2023-03-10T05:12:00.879Z,23.40
2023-03-10T05:14:45.101Z,23.67
2023-03-10T05:17:22.362Z,22.27
2023-03-10T05:20:04.166Z,20.57
2023-03-10T05:22:42.676Z,22.73
2023-03-10T05:25:25.549Z,22.63
2023-03-10T05:28:04.579Z,23.93
2023-03-10T05:30:44.280Z,23.53
2023-03-10T05:33:20.639Z,21.97
2023-03-10T05:36:03.442Z,21.53
2023-03-10T05:38:48.483Z,21.97
2023-03-10T05:41:30.460Z,23.90
2023-03-10T05:44:09.526Z,25.33
2023-03-10T05:46:49.356Z,22.83
2023-03-10T05:49:27.695Z,22.67
2023-03-10T05:52:06.941Z,23.93
2023-03-10T05:54:44.068Z,22.00
2023-03-10T05:57:27.506Z,24.17
2023-03-10T06:00:12.280Z,26.20
2023-03-10T06:03:04.816Z,25.17
2023-03-10T06:05:42.968Z,20.27
2023-03-10T06:08:19.192Z,23.73
2023-03-10T06:10:57.209Z,27.77
2023-03-10T06:13:43.008Z,28.77
2023-03-10T06:16:22.239Z,28.40
2023-03-10T06:19:02.567Z,23.37
2023-03-10T06:21:41.116Z,22.30
2023-03-10T06:24:22.039Z,22.67
2023-03-10T06:26:58.672Z,23.20
2023-03-10T06:29:37.396Z,22.33
2023-03-10T06:32:17.332Z,22.80
2023-03-10T06:34:56.301Z,24.00
2023-03-10T06:37:32.101Z,21.93
2023-03-10T06:40:09.798Z,18.03
2023-03-10T06:42:45.860Z,16.53
2023-03-10T06:45:24.813Z,15.90
2023-03-10T06:48:01.561Z,16.50
2023-03-10T06:50:47.379Z,17.47
2023-03-10T06:53:24.233Z,15.53
2023-03-10T06:56:07.305Z,16.43
2023-03-10T06:58:43.219Z,17.60
2023-03-10T07:01:32.544Z,16.37
2023-03-10T07:04:09.972Z,16.93
2023-03-10T07:06:46.280Z,17.40
2023-03-10T07:09:22.597Z,18.30
2023-03-10T07:12:06.852Z,17.70
2023-03-10T07:14:44.236Z,19.17
2023-03-10T07:17:22.935Z,18.43
2023-03-10T07:19:58.649Z,19.17
2023-03-10T07:22:36.287Z,19.50
2023-03-10T07:25:12.938Z,20.60
2023-03-10T07:27:48.825Z,20.40
2023-03-10T07:30:25.352Z,20.23
2023-03-10T07:33:21.254Z,19.63
2023-03-10T07:36:04.504Z,19.53
2023-03-10T07:39:12.465Z,20.07
2023-03-10T07:41:52.869Z,20.07
2023-03-10T07:44:29.101Z,20.37
2023-03-10T07:47:04.838Z,20.60
2023-03-10T07:49:48.169Z,20.87
2023-03-10T07:52:56.455Z,20.70
2023-03-10T07:55:32.475Z,21.27
2023-03-10T07:58:08.712Z,21.83
2023-03-10T08:00:45.409Z,21.13
2023-03-10T08:03:21.596Z,22.03
2023-03-10T08:06:01.208Z,22.67
2023-03-10T08:08:36.916Z,23.00
2023-03-10T08:11:14.022Z,21.27
2023-03-10T08:13:51.817Z,23.67
2023-03-10T08:16:28.524Z,21.30
2023-03-10T08:19:04.951Z,22.70
2023-03-10T08:21:43.658Z,21.30
2023-03-10T08:24:20.100Z,21.17
2023-03-10T08:26:56.517Z,19.87
2023-03-10T08:29:35.398Z,20.17
2023-03-10T08:32:14.093Z,20.10
2023-03-10T08:34:52.070Z,20.50
2023-03-10T08:37:30.211Z,21.73
2023-03-10T08:40:13.657Z,21.53
2023-03-10T08:42:50.190Z,19.90
2023-03-10T08:45:27.126Z,20.63
2023-03-10T08:48:03.675Z,20.03
2023-03-10T08:50:39.200Z,19.53
2023-03-10T08:53:18.865Z,18.17
2023-03-10T08:55:54.479Z,19.83
2023-03-10T08:58:30.451Z,19.43
2023-03-10T09:01:06.518Z,18.53
2023-03-10T09:03:43.665Z,20.33
2023-03-10T09:06:17.920Z,18.30
2023-03-10T09:08:56.523Z,19.67
2023-03-10T09:11:38.420Z,19.47
2023-03-10T09:14:19.528Z,19.20
2023-03-10T09:16:56.407Z,18.90
2023-03-10T09:20:00.108Z,18.33
2023-03-10T09:22:36.399Z,17.87
2023-03-10T09:25:19.102Z,18.53
2023-03-10T09:27:56.626Z,17.97
2023-03-10T09:30:33.282Z,17.70
2023-03-10T09:33:12.309Z,17.40
2023-03-10T09:36:05.079Z,17.37
2023-03-10T09:38:43.443Z,17.83
2023-03-10T09:41:55.044Z,17.50
2023-03-10T09:44:39.988Z,18.27
2023-03-10T09:47:30.505Z,17.87
2023-03-10T09:50:21.356Z,17.53
2023-03-10T09:53:08.833Z,17.63
2023-03-10T09:55:49.034Z,17.53
2023-03-10T09:58:40.224Z,17.17
2023-03-10T10:01:26.463Z,17.00
2023-03-10T10:04:10.655Z,18.27
2023-03-10T10:06:49.417Z,18.17
2023-03-10T10:09:36.653Z,17.60
2023-03-10T10:12:18.883Z,17.03
2023-03-10T10:15:02.822Z,18.97
2023-03-10T10:17:58.346Z,18.70
2023-03-10T10:20:40.893Z,16.80
2023-03-10T10:23:29.681Z,19.90
2023-03-10T10:26:17.421Z,19.70
2023-03-10T10:29:06.058Z,17.70
2023-03-10T10:32:12.174Z,17.37
2023-03-10T10:34:52.567Z,17.93
2023-03-10T10:37:41.550Z,10.77
2023-03-10T10:40:35.111Z,10.43
2023-03-10T10:43:26.796Z,11.13
2023-03-10T10:46:10.992Z,12.03
2023-03-10T10:48:55.671Z,11.27
2023-03-10T10:51:38.197Z,11.83
2023-03-10T10:54:32.523Z,11.57
2023-03-10T10:57:13.202Z,11.97
2023-03-10T10:59:51.166Z,23.53
2023-03-10T11:02:41.668Z,22.87
2023-03-10T11:05:28.830Z,22.90
2023-03-10T11:08:25.204Z,25.13
2023-03-10T11:11:06.349Z,25.67
2023-03-10T11:13:55.220Z,24.33
2023-03-10T11:16:42.676Z,27.37
2023-03-10T11:19:35.094Z,26.60
2023-03-10T11:22:25.127Z,26.00
2023-03-10T11:25:08.903Z,27.03
2023-03-10T11:27:57.265Z,26.37
2023-03-10T11:30:45.743Z,26.60
2023-03-10T11:33:33.014Z,26.33
2023-03-10T11:36:25.515Z,28.23
2023-03-10T11:39:18.226Z,28.13
2023-03-10T11:42:01.834Z,27.77
2023-03-10T11:44:46.843Z,28.50
2023-03-10T11:47:33.271Z,29.77
2023-03-10T11:50:33.924Z,29.03
2023-03-10T11:53:16.661Z,30.73
2023-03-10T11:55:57.844Z,30.87
2023-03-10T11:58:45.931Z,29.30
2023-03-10T12:01:29.728Z,29.67
2023-03-10T12:04:15.048Z,29.40
2023-03-10T12:06:56.576Z,30.23
2023-03-10T12:09:44.645Z,30.37
2023-03-10T12:12:27.556Z,31.27
2023-03-10T12:15:06.736Z,28.97
2023-03-10T12:17:47.556Z,29.07
2023-03-10T12:20:39.347Z,29.30
2023-03-10T12:23:46.136Z,29.83
2023-03-10T12:26:46.876Z,29.23
2023-03-10T12:29:50.172Z,28.60
2023-03-10T12:32:52.127Z,28.43
2023-03-10T12:35:55.917Z,29.80
2023-03-10T12:38:55.954Z,29.10
2023-03-10T12:41:56.897Z,30.10
2023-03-10T12:44:53.403Z,29.27
2023-03-10T12:47:55.444Z,30.90
2023-03-10T12:50:46.450Z,30.67
2023-03-10T12:53:45.024Z,31.77
2023-03-10T12:56:44.918Z,32.43
2023-03-10T12:59:31.068Z,31.27
2023-03-10T13:02:27.865Z,30.83
2023-03-10T13:05:14.332Z,31.33
2023-03-10T13:08:01.189Z,31.57
2023-03-10T13:10:40.911Z,29.27
2023-03-10T13:13:27.524Z,29.03
2023-03-10T13:16:10.393Z,31.63
2023-03-10T13:18:57.532Z,29.20
2023-03-10T13:21:40.596Z,31.47
2023-03-10T13:24:33.971Z,33.67
2023-03-10T13:27:16.584Z,35.37
2023-03-10T13:30:08.287Z,33.37
2023-03-10T13:32:58.007Z,34.47
2023-03-10T13:35:43.906Z,33.63
2023-03-10T13:38:23.243Z,34.90
2023-03-10T13:41:08.738Z,34.80
2023-03-10T13:43:54.366Z,33.97
2023-03-10T13:46:33.499Z,36.13
2023-03-10T13:49:18.054Z,35.53
2023-03-10T13:52:05.045Z,37.00
2023-03-10T13:54:42.849Z,35.93
2023-03-10T13:57:31.558Z,38.97
2023-03-10T14:00:13.044Z,38.33
2023-03-10T14:02:53.849Z,38.53
2023-03-10T14:06:02.971Z,36.80
2023-03-10T14:08:45.710Z,38.03
2023-03-10T14:11:51.096Z,37.43
2023-03-10T14:14:52.032Z,37.37
2023-03-10T14:17:40.170Z,37.97
2023-03-10T14:20:39.584Z,36.63
2023-03-10T14:23:35.147Z,36.80
2023-03-10T14:26:21.515Z,36.53
2023-03-10T14:29:01.158Z,37.53
2023-03-10T14:31:38.919Z,38.47
2023-03-10T14:34:24.146Z,34.57
2023-03-10T14:37:01.719Z,33.47
2023-03-10T14:39:47.135Z,34.60
2023-03-10T14:42:47.207Z,33.73
2023-03-10T14:45:35.600Z,33.60
2023-03-10T14:48:26.701Z,34.00
2023-03-10T14:51:14.533Z,33.67
2023-03-10T14:53:58.057Z,34.83
2023-03-10T14:56:46.280Z,34.47
2023-03-10T14:59:31.819Z,36.47
2023-03-10T15:02:17.464Z,37.07
2023-03-10T15:04:54.092Z,33.53
2023-03-10T15:07:33.166Z,32.10
2023-03-10T15:10:15.877Z,32.37
2023-03-10T15:12:53.736Z,34.43
2023-03-10T15:15:46.245Z,31.83
2023-03-10T15:18:31.884Z,32.97
2023-03-10T15:21:12.273Z,33.03
2023-03-10T15:23:57.391Z,33.10
2023-03-10T15:26:41.568Z,34.30
2023-03-10T15:29:25.032Z,34.03
2023-03-10T15:32:11.204Z,33.10
2023-03-10T15:34:54.313Z,33.93
2023-03-10T15:37:31.079Z,32.73
2023-03-10T15:40:11.380Z,33.60
2023-03-10T15:42:55.948Z,33.93
2023-03-10T15:45:33.812Z,34.53
2023-03-10T15:48:19.188Z,32.97
2023-03-10T15:50:58.870Z,34.87
2023-03-10T15:53:35.809Z,33.90
2023-03-10T15:56:18.976Z,34.80
2023-03-10T15:58:58.509Z,35.00
2023-03-10T16:01:35.821Z,35.40
2023-03-10T16:04:26.549Z,35.60
2023-03-10T16:07:11.549Z,34.37
2023-03-10T16:09:50.197Z,35.50
2023-03-10T16:12:26.904Z,35.10
2023-03-10T16:15:06.406Z,35.43
2023-03-10T16:17:47.965Z,36.27
2023-03-10T16:20:33.218Z,37.70
2023-03-10T16:23:11.849Z,38.13
2023-03-10T16:25:48.517Z,39.90
2023-03-10T16:28:28.546Z,39.63
2023-03-10T16:31:08.001Z,39.17
2023-03-10T16:33:48.030Z,38.53
2023-03-10T16:36:38.772Z,39.50
2023-03-10T16:39:21.747Z,38.27
2023-03-10T16:42:02.886Z,37.50
2023-03-10T16:44:39.408Z,38.03
2023-03-10T16:47:17.991Z,38.47
2023-03-10T16:49:57.473Z,38.03
2023-03-10T16:52:57.070Z,39.60
2023-03-10T16:55:39.727Z,38.17
2023-03-10T16:58:19.292Z,40.80
2023-03-10T17:00:59.707Z,42.00
2023-03-10T17:03:40.975Z,44.07
2023-03-10T17:06:21.585Z,46.43
2023-03-10T17:09:09.408Z,49.40
2023-03-10T17:11:54.875Z,49.07
2023-03-10T17:14:35.017Z,51.43
2023-03-10T17:17:12.908Z,50.23
2023-03-10T17:19:50.298Z,51.57
2023-03-10T17:22:26.482Z,52.20
2023-03-10T17:25:11.062Z,51.90
2023-03-10T17:27:46.984Z,51.73
2023-03-10T17:30:26.288Z,51.73
2023-03-10T17:33:06.523Z,50.40
2023-03-10T17:35:58.885Z,47.13
2023-03-10T17:38:36.519Z,47.53
2023-03-10T17:41:15.863Z,50.27
2023-03-10T17:43:53.664Z,50.87
2023-03-10T17:46:35.339Z,55.10
2023-03-10T17:49:12.680Z,55.97
2023-03-10T17:51:49.593Z,51.67
2023-03-10T17:54:27.234Z,53.57
2023-03-10T17:57:05.338Z,53.97
2023-03-10T17:59:41.857Z,53.27
2023-03-10T18:02:22.125Z,55.23
2023-03-10T18:04:58.247Z,56.50
2023-03-10T18:07:38.711Z,55.50
2023-03-10T18:10:15.303Z,54.20
2023-03-10T18:12:54.011Z,52.53
2023-03-10T18:15:30.322Z,53.77
2023-03-10T18:18:05.850Z,56.17
2023-03-10T18:20:41.490Z,53.40
2023-03-10T18:23:19.080Z,54.70
2023-03-10T18:25:54.821Z,53.77
2023-03-10T18:28:32.631Z,52.40
2023-03-10T18:31:10.884Z,52.40
2023-03-10T18:33:47.437Z,55.17
2023-03-10T18:36:25.326Z,53.73
2023-03-10T18:39:03.988Z,55.30
2023-03-10T18:41:40.227Z,55.10
2023-03-10T18:44:17.845Z,54.73
2023-03-10T18:46:53.578Z,55.07
2023-03-10T18:49:29.244Z,55.70
2023-03-10T18:52:04.488Z,56.07
2023-03-10T18:54:40.263Z,55.53
2023-03-10T18:57:15.800Z,53.60
2023-03-10T18:59:54.049Z,53.43
2023-03-10T19:02:29.597Z,55.17
2023-03-10T19:05:06.695Z,55.00
2023-03-10T19:07:41.902Z,53.20
2023-03-10T19:10:20.106Z,53.57
2023-03-10T19:12:57.032Z,52.83
2023-03-10T19:15:35.038Z,53.43
2023-03-10T19:18:10.659Z,52.00
2023-03-10T19:20:47.886Z,53.67
2023-03-10T19:23:22.804Z,52.50
2023-03-10T19:25:58.017Z,53.13
2023-03-10T19:28:34.018Z,52.47
2023-03-10T19:31:14.569Z,52.50
2023-03-10T19:33:49.984Z,51.33
2023-03-10T19:36:28.342Z,53.00
2023-03-10T19:39:03.561Z,53.23
2023-03-10T19:41:39.030Z,51.97
2023-03-10T19:44:14.186Z,52.20
2023-03-10T19:46:51.264Z,52.23
2023-03-10T19:49:25.781Z,50.57
2023-03-10T19:52:00.681Z,51.97
2023-03-10T19:54:35.482Z,51.67
2023-03-10T19:57:14.372Z,50.77
2023-03-10T19:59:48.791Z,53.23
2023-03-10T20:02:26.256Z,51.67
2023-03-10T20:05:00.714Z,52.93
2023-03-10T20:07:34.193Z,52.90
2023-03-10T20:10:09.766Z,52.60
2023-03-10T20:12:44.109Z,51.50
2023-03-10T20:15:19.855Z,51.57
2023-03-10T20:17:56.954Z,47.60
2023-03-10T20:20:30.938Z,48.37
2023-03-10T20:23:04.587Z,50.13
2023-03-10T20:25:38.784Z,47.90
2023-03-10T20:28:13.810Z,46.67
2023-03-10T20:30:48.026Z,43.73
2023-03-10T20:33:23.424Z,42.47
2023-03-10T20:35:57.071Z,40.87
2023-03-10T20:38:30.642Z,40.60
2023-03-10T20:41:03.953Z,40.13
2023-03-10T20:43:38.594Z,41.23
2023-03-10T20:46:12.599Z,44.87
2023-03-10T20:48:48.860Z,42.53
2023-03-10T20:51:23.821Z,41.73
2023-03-10T20:53:58.259Z,41.70
2023-03-10T20:56:31.535Z,42.00
2023-03-10T20:59:06.127Z,40.30
2023-03-10T21:01:40.944Z,41.50
2023-03-10T21:04:17.075Z,40.67
2023-03-10T21:06:51.627Z,38.63
2023-03-10T21:09:25.684Z,37.70
2023-03-10T21:11:59.661Z,37.50
2023-03-10T21:14:33.716Z,36.77
2023-03-10T21:17:07.080Z,38.90
2023-03-10T21:19:45.247Z,37.47
2023-03-10T21:22:19.409Z,39.73
2023-03-10T21:24:54.538Z,39.10
2023-03-10T21:27:30.247Z,38.70
2023-03-10T21:30:06.161Z,40.77
2023-03-10T21:32:41.324Z,40.23
2023-03-10T21:35:17.454Z,38.80
2023-03-10T21:37:51.977Z,39.83
2023-03-10T21:40:26.595Z,40.23
2023-03-10T21:43:02.526Z,39.60
2023-03-10T21:45:38.972Z,39.77
2023-03-10T21:48:13.550Z,39.43
2023-03-10T21:50:50.107Z,38.57
2023-03-10T21:53:28.115Z,40.03
2023-03-10T21:56:02.166Z,40.13
2023-03-10T21:58:36.272Z,41.07
2023-03-10T22:01:12.149Z,42.13
2023-03-10T22:03:47.031Z,42.03
2023-03-10T22:06:23.635Z,41.67
2023-03-10T22:08:57.863Z,42.87
2023-03-10T22:11:33.931Z,42.63
2023-03-10T22:14:09.377Z,43.17
2023-03-10T22:16:43.389Z,42.53
2023-03-10T22:19:18.248Z,42.00
2023-03-10T22:21:55.326Z,41.13
2023-03-10T22:24:30.232Z,42.33
2023-03-10T22:27:05.432Z,41.17
2023-03-10T22:29:40.940Z,44.73
2023-03-10T22:32:16.858Z,46.50
2023-03-10T22:34:52.691Z,48.37
2023-03-10T22:37:30.132Z,48.90
2023-03-10T22:40:06.443Z,49.17
2023-03-10T22:42:42.872Z,49.63
2023-03-10T22:45:22.740Z,51.03
2023-03-10T22:47:59.004Z,51.43
2023-03-10T22:50:36.418Z,50.87
2023-03-10T22:53:19.206Z,49.23
2023-03-10T22:55:55.865Z,50.37
2023-03-10T22:58:31.129Z,49.50
2023-03-10T23:01:07.064Z,50.83
2023-03-10T23:03:43.005Z,51.60
2023-03-10T23:06:18.694Z,51.33
2023-03-10T23:08:56.446Z,52.30
2023-03-10T23:11:31.920Z,51.00
2023-03-10T23:14:07.781Z,49.80
2023-03-10T23:16:44.111Z,50.87
2023-03-10T23:19:20.549Z,51.23
2023-03-10T23:21:56.490Z,50.47
2023-03-10T23:24:34.151Z,52.50
2023-03-10T23:27:13.358Z,52.20
2023-03-10T23:29:48.257Z,51.30
2023-03-10T23:32:24.801Z,52.40
2023-03-10T23:35:00.830Z,51.80
2023-03-10T23:37:36.979Z,50.37
2023-03-10T23:40:18.456Z,52.60
2023-03-10T23:42:54.795Z,53.90
2023-03-10T23:45:33.124Z,53.87
2023-03-10T23:48:10.464Z,55.73
2023-03-10T23:50:48.047Z,53.13
2023-03-10T23:53:25.053Z,54.43
2023-03-10T23:56:02.889Z,54.53
2023-03-10T23:58:38.401Z,54.57
